Impacts METAR Board
IDs:

KNEW - New Orleans/Lakefron, LA, US

Updated at: 1200 UTC 20 May 2018
Potential Impact None Slight Moderate High
Time 20/00Z 20/01Z 20/02Z 20/03Z 20/04Z 20/05Z 20/06Z 20/07Z 20/08Z 20/09Z 20/10Z 20/11Z 20/12Z
Temp85 83 81 80 79 79 79 77 77 77 75 75 77
Dewpt69 69 71 71 72 72 71 72 72 72 71 71 73
Altim29.96 29.98 30.01 30.02 30.04 30.04 30.03 30.02 30.03 30.03 30.03 30.04 30.05
VIS10 10 10 10 10 10 10 10 10 10 10 10 8
CIG-- -- -- -- -- -- -- -- -- -- -- -- --
CoverCLRCLRCLRCLRCLRCLRCLRCLRCLRCLRCLRCLRCLR
FltCatVFRVFRVFRVFRVFRVFRVFRVFRVFRVFRVFRVFRVFR
WX--------------------------
WDir160170160160160150140150130150160200110
WSpd10 10 8 8 5 7 7 6 5 6 4 5 4
WGst-- -- -- -- -- -- -- -- -- -- -- -- --
Raw hourly METARs
KNEW 192353Z 16010KT 10SM CLR 29/21 A2996 RMK AO2 SLP137 T02940206 10322 20294 55003 $
KNEW 200053Z 17010KT 10SM CLR 28/21 A2998 RMK AO2 SLP145 T02830206 $
KNEW 200153Z 16008KT 10SM CLR 27/22 A3001 RMK AO2 SLP154 T02720217 $
KNEW 200253Z AUTO 16008KT 10SM CLR 27/22 A3002 RMK AO2 SLP159 T02670217 51022 $
KNEW 200353Z AUTO 16005KT 10SM CLR 26/22 A3004 RMK AO2 SLP165 T02610222 $
KNEW 200453Z AUTO 15007KT 10SM CLR 26/22 A3004 RMK AO2 SLP165 T02610222 $
KNEW 200553Z AUTO 14007KT 10SM CLR 26/22 A3003 RMK AO2 SLP161 T02610217 10294 20261 403220222 50002 $
KNEW 200653Z AUTO 15006KT 10SM CLR 25/22 A3002 RMK AO2 SLP158 T02500222 $
KNEW 200753Z AUTO 13005KT 10SM CLR 25/22 A3003 RMK AO2 SLP161 T02500222 $
KNEW 200853Z AUTO 15006KT 10SM CLR 25/22 A3003 RMK AO2 SLP161 T02500222 56001 $
KNEW 200953Z AUTO 16004KT 10SM CLR 24/22 A3003 RMK AO2 SLP163 T02390217 $
KNEW 201053Z AUTO 20005KT 10SM CLR 24/22 A3004 RMK AO2 SLP165 T02390217 $
KNEW 201153Z AUTO 11004KT 8SM CLR 25/23 A3005 RMK AO2 SLP169 T02500228 10261 20239 53008 $



Page loaded:  12:04 UTC  |   05:04 AM Pacific  |   06:04 AM Mountain  |   07:04 AM Central  |   08:04 AM Eastern

 

ADVISORIES

FORECASTS

FORECASTS

OBSERVATIONS

USER TOOLS

ABOUT US